sensor_id;sensor_type;location;lat;lon;timestamp;P1;durP1;ratioP1;P2;durP2;ratioP2
33421;SDS011;19763;55.798;37.782;2023-04-25T00:02:03;18.70;;;8.07;;
33421;SDS011;19763;55.798;37.782;2023-04-25T00:04:29;16.27;;;8.55;;
33421;SDS011;19763;55.798;37.782;2023-04-25T00:06:55;18.73;;;8.95;;
33421;SDS011;19763;55.798;37.782;2023-04-25T00:09:21;14.85;;;7.25;;
33421;SDS011;19763;55.798;37.782;2023-04-25T00:11:47;17.17;;;7.47;;
33421;SDS011;19763;55.798;37.782;2023-04-25T00:14:12;18.25;;;8.82;;
33421;SDS011;19763;55.798;37.782;2023-04-25T00:16:38;19.60;;;8.50;;
33421;SDS011;19763;55.798;37.782;2023-04-25T00:19:06;20.35;;;8.23;;
33421;SDS011;19763;55.798;37.782;2023-04-25T00:21:32;22.25;;;8.68;;
33421;SDS011;19763;55.798;37.782;2023-04-25T00:23:58;11.60;;;7.82;;
33421;SDS011;19763;55.798;37.782;2023-04-25T00:26:24;18.02;;;8.77;;
33421;SDS011;19763;55.798;37.782;2023-04-25T00:28:50;16.48;;;8.63;;
33421;SDS011;19763;55.798;37.782;2023-04-25T00:31:16;14.68;;;8.85;;
33421;SDS011;19763;55.798;37.782;2023-04-25T00:33:42;17.80;;;8.63;;
33421;SDS011;19763;55.798;37.782;2023-04-25T00:36:07;17.40;;;9.75;;
33421;SDS011;19763;55.798;37.782;2023-04-25T00:38:33;19.13;;;8.25;;
33421;SDS011;19763;55.798;37.782;2023-04-25T00:40:59;21.17;;;9.32;;
33421;SDS011;19763;55.798;37.782;2023-04-25T00:43:28;18.10;;;9.63;;
33421;SDS011;19763;55.798;37.782;2023-04-25T00:45:57;16.20;;;9.40;;
33421;SDS011;19763;55.798;37.782;2023-04-25T00:48:26;14.23;;;9.10;;
33421;SDS011;19763;55.798;37.782;2023-04-25T00:50:52;18.75;;;9.65;;
33421;SDS011;19763;55.798;37.782;2023-04-25T00:53:20;22.83;;;9.27;;
33421;SDS011;19763;55.798;37.782;2023-04-25T00:55:49;16.90;;;9.27;;
33421;SDS011;19763;55.798;37.782;2023-04-25T00:58:19;16.50;;;9.32;;
33421;SDS011;19763;55.798;37.782;2023-04-25T01:00:46;16.63;;;9.50;;
33421;SDS011;19763;55.798;37.782;2023-04-25T01:03:14;21.02;;;9.30;;
33421;SDS011;19763;55.798;37.782;2023-04-25T01:05:41;20.52;;;9.25;;
33421;SDS011;19763;55.798;37.782;2023-04-25T01:08:08;21.85;;;9.25;;
33421;SDS011;19763;55.798;37.782;2023-04-25T01:10:34;18.52;;;9.18;;
33421;SDS011;19763;55.798;37.782;2023-04-25T01:13:00;22.05;;;9.15;;
33421;SDS011;19763;55.798;37.782;2023-04-25T01:15:25;15.40;;;9.05;;
33421;SDS011;19763;55.798;37.782;2023-04-25T01:17:51;17.40;;;8.20;;
33421;SDS011;19763;55.798;37.782;2023-04-25T01:20:18;16.90;;;8.93;;
33421;SDS011;19763;55.798;37.782;2023-04-25T01:22:48;12.50;;;9.00;;
33421;SDS011;19763;55.798;37.782;2023-04-25T01:25:14;21.58;;;8.98;;
33421;SDS011;19763;55.798;37.782;2023-04-25T01:27:40;12.15;;;8.77;;
33421;SDS011;19763;55.798;37.782;2023-04-25T01:30:06;18.48;;;10.00;;
33421;SDS011;19763;55.798;37.782;2023-04-25T01:32:32;16.67;;;10.25;;
33421;SDS011;19763;55.798;37.782;2023-04-25T01:35:06;21.73;;;10.05;;
33421;SDS011;19763;55.798;37.782;2023-04-25T01:37:35;13.82;;;9.32;;
33421;SDS011;19763;55.798;37.782;2023-04-25T01:40:08;16.08;;;8.90;;
33421;SDS011;19763;55.798;37.782;2023-04-25T01:42:36;15.07;;;9.45;;
33421;SDS011;19763;55.798;37.782;2023-04-25T01:45:03;16.20;;;8.75;;
33421;SDS011;19763;55.798;37.782;2023-04-25T01:47:30;14.40;;;8.50;;
33421;SDS011;19763;55.798;37.782;2023-04-25T01:49:55;15.85;;;9.60;;
33421;SDS011;19763;55.798;37.782;2023-04-25T01:52:21;17.85;;;9.20;;
33421;SDS011;19763;55.798;37.782;2023-04-25T01:54:47;16.25;;;9.32;;
33421;SDS011;19763;55.798;37.782;2023-04-25T01:57:13;16.65;;;8.93;;
33421;SDS011;19763;55.798;37.782;2023-04-25T01:59:39;17.45;;;8.93;;
33421;SDS011;19763;55.798;37.782;2023-04-25T02:02:05;15.57;;;9.23;;
33421;SDS011;19763;55.798;37.782;2023-04-25T02:04:31;20.00;;;9.50;;
33421;SDS011;19763;55.798;37.782;2023-04-25T02:06:57;13.70;;;8.65;;
33421;SDS011;19763;55.798;37.782;2023-04-25T02:09:23;17.52;;;9.32;;
33421;SDS011;19763;55.798;37.782;2023-04-25T02:11:49;16.05;;;9.63;;
33421;SDS011;19763;55.798;37.782;2023-04-25T02:14:15;16.23;;;9.00;;
33421;SDS011;19763;55.798;37.782;2023-04-25T02:16:41;16.27;;;9.05;;
33421;SDS011;19763;55.798;37.782;2023-04-25T02:19:08;14.35;;;9.00;;
33421;SDS011;19763;55.798;37.782;2023-04-25T02:21:35;18.15;;;9.20;;
33421;SDS011;19763;55.798;37.782;2023-04-25T02:24:00;17.27;;;9.13;;
33421;SDS011;19763;55.798;37.782;2023-04-25T02:26:26;17.88;;;8.80;;
33421;SDS011;19763;55.798;37.782;2023-04-25T02:28:52;19.13;;;9.73;;
33421;SDS011;19763;55.798;37.782;2023-04-25T02:31:18;14.30;;;9.02;;
33421;SDS011;19763;55.798;37.782;2023-04-25T02:33:44;15.65;;;9.13;;
33421;SDS011;19763;55.798;37.782;2023-04-25T02:36:09;13.77;;;8.73;;
33421;SDS011;19763;55.798;37.782;2023-04-25T02:38:35;14.57;;;8.82;;
33421;SDS011;19763;55.798;37.782;2023-04-25T02:41:01;17.63;;;9.15;;
33421;SDS011;19763;55.798;37.782;2023-04-25T02:43:26;14.30;;;8.93;;
33421;SDS011;19763;55.798;37.782;2023-04-25T02:45:52;16.65;;;9.50;;
33421;SDS011;19763;55.798;37.782;2023-04-25T02:48:18;18.02;;;8.52;;
33421;SDS011;19763;55.798;37.782;2023-04-25T02:50:43;18.55;;;9.13;;
33421;SDS011;19763;55.798;37.782;2023-04-25T02:53:10;15.40;;;9.02;;
33421;SDS011;19763;55.798;37.782;2023-04-25T02:55:35;20.48;;;10.00;;
33421;SDS011;19763;55.798;37.782;2023-04-25T02:58:01;18.05;;;9.20;;
33421;SDS011;19763;55.798;37.782;2023-04-25T03:00:26;19.77;;;9.85;;
33421;SDS011;19763;55.798;37.782;2023-04-25T03:02:52;20.92;;;9.27;;
33421;SDS011;19763;55.798;37.782;2023-04-25T03:05:18;19.98;;;9.25;;
33421;SDS011;19763;55.798;37.782;2023-04-25T03:07:44;16.88;;;8.77;;
33421;SDS011;19763;55.798;37.782;2023-04-25T03:10:11;15.43;;;9.77;;
33421;SDS011;19763;55.798;37.782;2023-04-25T03:12:36;21.63;;;9.50;;
33421;SDS011;19763;55.798;37.782;2023-04-25T03:15:02;19.67;;;9.98;;
33421;SDS011;19763;55.798;37.782;2023-04-25T03:17:29;14.98;;;9.05;;
33421;SDS011;19763;55.798;37.782;2023-04-25T03:19:55;18.63;;;8.23;;
33421;SDS011;19763;55.798;37.782;2023-04-25T03:22:21;17.80;;;9.38;;
33421;SDS011;19763;55.798;37.782;2023-04-25T03:24:47;23.20;;;9.30;;
33421;SDS011;19763;55.798;37.782;2023-04-25T03:27:13;20.27;;;9.80;;
33421;SDS011;19763;55.798;37.782;2023-04-25T03:29:38;17.73;;;9.88;;
33421;SDS011;19763;55.798;37.782;2023-04-25T03:32:05;21.45;;;9.55;;
33421;SDS011;19763;55.798;37.782;2023-04-25T03:34:31;23.38;;;11.85;;
33421;SDS011;19763;55.798;37.782;2023-04-25T03:36:56;20.63;;;10.25;;
33421;SDS011;19763;55.798;37.782;2023-04-25T03:39:22;17.20;;;9.70;;
33421;SDS011;19763;55.798;37.782;2023-04-25T03:41:48;16.40;;;11.05;;
33421;SDS011;19763;55.798;37.782;2023-04-25T03:44:13;13.70;;;9.20;;
33421;SDS011;19763;55.798;37.782;2023-04-25T03:46:39;20.30;;;9.35;;
33421;SDS011;19763;55.798;37.782;2023-04-25T03:49:05;21.45;;;9.10;;
33421;SDS011;19763;55.798;37.782;2023-04-25T03:51:30;22.27;;;9.35;;
33421;SDS011;19763;55.798;37.782;2023-04-25T03:53:56;20.65;;;9.60;;
33421;SDS011;19763;55.798;37.782;2023-04-25T03:56:22;19.63;;;8.38;;
33421;SDS011;19763;55.798;37.782;2023-04-25T03:58:47;15.45;;;9.25;;
33421;SDS011;19763;55.798;37.782;2023-04-25T04:01:13;23.30;;;9.20;;
33421;SDS011;19763;55.798;37.782;2023-04-25T04:03:39;30.88;;;10.38;;
33421;SDS011;19763;55.798;37.782;2023-04-25T04:06:05;19.27;;;9.23;;
33421;SDS011;19763;55.798;37.782;2023-04-25T04:08:32;17.77;;;9.13;;
33421;SDS011;19763;55.798;37.782;2023-04-25T04:10:58;18.55;;;9.23;;
33421;SDS011;19763;55.798;37.782;2023-04-25T04:13:28;18.63;;;9.73;;
33421;SDS011;19763;55.798;37.782;2023-04-25T04:15:54;24.50;;;10.07;;
33421;SDS011;19763;55.798;37.782;2023-04-25T04:18:20;18.98;;;8.73;;
33421;SDS011;19763;55.798;37.782;2023-04-25T04:20:47;23.50;;;9.82;;
33421;SDS011;19763;55.798;37.782;2023-04-25T04:23:13;26.95;;;9.65;;
33421;SDS011;19763;55.798;37.782;2023-04-25T04:25:38;16.60;;;9.98;;
33421;SDS011;19763;55.798;37.782;2023-04-25T04:28:05;23.33;;;9.50;;
33421;SDS011;19763;55.798;37.782;2023-04-25T04:30:31;26.52;;;12.95;;
33421;SDS011;19763;55.798;37.782;2023-04-25T04:32:58;26.83;;;10.90;;
33421;SDS011;19763;55.798;37.782;2023-04-25T04:35:24;19.73;;;9.93;;
33421;SDS011;19763;55.798;37.782;2023-04-25T04:37:50;31.60;;;11.25;;
33421;SDS011;19763;55.798;37.782;2023-04-25T04:40:15;25.77;;;11.10;;
33421;SDS011;19763;55.798;37.782;2023-04-25T04:42:41;23.33;;;11.00;;
33421;SDS011;19763;55.798;37.782;2023-04-25T04:45:08;21.95;;;10.80;;
33421;SDS011;19763;55.798;37.782;2023-04-25T04:47:35;24.27;;;9.95;;
33421;SDS011;19763;55.798;37.782;2023-04-25T04:50:02;19.60;;;10.23;;
33421;SDS011;19763;55.798;37.782;2023-04-25T04:52:29;20.77;;;10.45;;
33421;SDS011;19763;55.798;37.782;2023-04-25T04:54:55;24.10;;;10.00;;
33421;SDS011;19763;55.798;37.782;2023-04-25T04:57:20;26.55;;;10.27;;
33421;SDS011;19763;55.798;37.782;2023-04-25T04:59:46;18.15;;;9.90;;
33421;SDS011;19763;55.798;37.782;2023-04-25T05:02:12;28.42;;;11.95;;
33421;SDS011;19763;55.798;37.782;2023-04-25T05:04:37;22.98;;;10.75;;
33421;SDS011;19763;55.798;37.782;2023-04-25T05:07:03;22.27;;;10.35;;
33421;SDS011;19763;55.798;37.782;2023-04-25T05:09:28;23.13;;;12.45;;
33421;SDS011;19763;55.798;37.782;2023-04-25T05:11:54;22.50;;;10.18;;
33421;SDS011;19763;55.798;37.782;2023-04-25T05:14:20;24.02;;;10.10;;
33421;SDS011;19763;55.798;37.782;2023-04-25T05:16:46;24.85;;;10.18;;
33421;SDS011;19763;55.798;37.782;2023-04-25T05:19:12;17.08;;;9.25;;
33421;SDS011;19763;55.798;37.782;2023-04-25T05:21:38;22.85;;;10.18;;
33421;SDS011;19763;55.798;37.782;2023-04-25T05:24:03;22.42;;;9.40;;
33421;SDS011;19763;55.798;37.782;2023-04-25T05:26:29;25.95;;;9.38;;
33421;SDS011;19763;55.798;37.782;2023-04-25T05:28:58;18.27;;;9.35;;
33421;SDS011;19763;55.798;37.782;2023-04-25T05:31:24;24.48;;;9.60;;
33421;SDS011;19763;55.798;37.782;2023-04-25T05:33:50;20.25;;;8.98;;
33421;SDS011;19763;55.798;37.782;2023-04-25T05:36:16;17.90;;;9.50;;
33421;SDS011;19763;55.798;37.782;2023-04-25T05:38:42;20.50;;;8.70;;
33421;SDS011;19763;55.798;37.782;2023-04-25T05:41:08;15.80;;;7.75;;
33421;SDS011;19763;55.798;37.782;2023-04-25T05:43:33;23.35;;;8.55;;
33421;SDS011;19763;55.798;37.782;2023-04-25T05:45:59;24.52;;;8.32;;
33421;SDS011;19763;55.798;37.782;2023-04-25T05:48:25;21.65;;;9.13;;
33421;SDS011;19763;55.798;37.782;2023-04-25T05:50:50;21.73;;;9.50;;
33421;SDS011;19763;55.798;37.782;2023-04-25T05:53:17;22.02;;;9.32;;
33421;SDS011;19763;55.798;37.782;2023-04-25T05:55:42;14.45;;;9.07;;
33421;SDS011;19763;55.798;37.782;2023-04-25T05:58:08;18.80;;;9.30;;
33421;SDS011;19763;55.798;37.782;2023-04-25T06:00:34;14.77;;;8.70;;
33421;SDS011;19763;55.798;37.782;2023-04-25T06:03:00;20.52;;;9.68;;
33421;SDS011;19763;55.798;37.782;2023-04-25T06:05:26;22.20;;;8.52;;
33421;SDS011;19763;55.798;37.782;2023-04-25T06:07:52;29.38;;;10.20;;
33421;SDS011;19763;55.798;37.782;2023-04-25T06:10:17;18.58;;;9.43;;
33421;SDS011;19763;55.798;37.782;2023-04-25T06:12:43;50.65;;;27.17;;
33421;SDS011;19763;55.798;37.782;2023-04-25T06:15:09;26.02;;;13.57;;
33421;SDS011;19763;55.798;37.782;2023-04-25T06:17:35;18.73;;;8.52;;
33421;SDS011;19763;55.798;37.782;2023-04-25T06:20:01;17.25;;;8.00;;
33421;SDS011;19763;55.798;37.782;2023-04-25T06:22:28;15.73;;;8.15;;
33421;SDS011;19763;55.798;37.782;2023-04-25T06:24:54;13.98;;;8.13;;
33421;SDS011;19763;55.798;37.782;2023-04-25T06:27:22;19.98;;;7.15;;
33421;SDS011;19763;55.798;37.782;2023-04-25T06:29:48;14.02;;;7.38;;
33421;SDS011;19763;55.798;37.782;2023-04-25T06:32:13;13.55;;;6.97;;
33421;SDS011;19763;55.798;37.782;2023-04-25T06:34:39;18.70;;;6.70;;
33421;SDS011;19763;55.798;37.782;2023-04-25T06:37:04;12.15;;;6.20;;
33421;SDS011;19763;55.798;37.782;2023-04-25T06:39:30;13.13;;;6.95;;
33421;SDS011;19763;55.798;37.782;2023-04-25T06:41:56;12.95;;;6.18;;
33421;SDS011;19763;55.798;37.782;2023-04-25T06:44:21;15.70;;;6.47;;
33421;SDS011;19763;55.798;37.782;2023-04-25T06:46:49;13.85;;;6.72;;
33421;SDS011;19763;55.798;37.782;2023-04-25T06:49:14;19.60;;;6.53;;
33421;SDS011;19763;55.798;37.782;2023-04-25T06:51:40;14.13;;;6.50;;
33421;SDS011;19763;55.798;37.782;2023-04-25T06:54:06;12.57;;;6.88;;
33421;SDS011;19763;55.798;37.782;2023-04-25T06:56:31;11.45;;;5.85;;
33421;SDS011;19763;55.798;37.782;2023-04-25T06:58:57;13.85;;;5.30;;
33421;SDS011;19763;55.798;37.782;2023-04-25T07:01:23;13.95;;;5.55;;
33421;SDS011;19763;55.798;37.782;2023-04-25T07:03:49;14.57;;;5.63;;
33421;SDS011;19763;55.798;37.782;2023-04-25T07:06:14;13.02;;;6.30;;
33421;SDS011;19763;55.798;37.782;2023-04-25T07:08:40;13.57;;;6.25;;
33421;SDS011;19763;55.798;37.782;2023-04-25T07:11:06;11.00;;;5.90;;
33421;SDS011;19763;55.798;37.782;2023-04-25T07:13:34;10.18;;;5.85;;
33421;SDS011;19763;55.798;37.782;2023-04-25T07:16:00;14.38;;;6.18;;
33421;SDS011;19763;55.798;37.782;2023-04-25T07:18:25;12.35;;;6.55;;
33421;SDS011;19763;55.798;37.782;2023-04-25T07:20:51;18.20;;;6.80;;
33421;SDS011;19763;55.798;37.782;2023-04-25T07:23:17;18.60;;;6.32;;
33421;SDS011;19763;55.798;37.782;2023-04-25T07:25:42;13.40;;;6.03;;
33421;SDS011;19763;55.798;37.782;2023-04-25T07:28:08;11.25;;;5.82;;
33421;SDS011;19763;55.798;37.782;2023-04-25T07:30:33;11.52;;;5.78;;
33421;SDS011;19763;55.798;37.782;2023-04-25T07:33:00;11.18;;;6.18;;
33421;SDS011;19763;55.798;37.782;2023-04-25T07:35:26;9.75;;;4.80;;
33421;SDS011;19763;55.798;37.782;2023-04-25T07:37:51;8.98;;;5.18;;
33421;SDS011;19763;55.798;37.782;2023-04-25T07:40:17;10.70;;;5.00;;
33421;SDS011;19763;55.798;37.782;2023-04-25T07:42:42;13.00;;;5.43;;
33421;SDS011;19763;55.798;37.782;2023-04-25T07:45:08;11.90;;;5.90;;
33421;SDS011;19763;55.798;37.782;2023-04-25T07:47:34;9.43;;;5.60;;
33421;SDS011;19763;55.798;37.782;2023-04-25T07:50:00;8.93;;;5.60;;
33421;SDS011;19763;55.798;37.782;2023-04-25T07:52:26;10.55;;;5.85;;
33421;SDS011;19763;55.798;37.782;2023-04-25T07:54:52;15.38;;;5.28;;
33421;SDS011;19763;55.798;37.782;2023-04-25T07:57:17;9.50;;;5.57;;
33421;SDS011;19763;55.798;37.782;2023-04-25T07:59:44;13.15;;;6.38;;
33421;SDS011;19763;55.798;37.782;2023-04-25T08:02:10;11.25;;;5.82;;
33421;SDS011;19763;55.798;37.782;2023-04-25T08:04:36;10.85;;;5.10;;
33421;SDS011;19763;55.798;37.782;2023-04-25T08:07:01;13.90;;;5.88;;
33421;SDS011;19763;55.798;37.782;2023-04-25T08:09:27;15.40;;;6.10;;
33421;SDS011;19763;55.798;37.782;2023-04-25T08:11:53;12.50;;;5.05;;
33421;SDS011;19763;55.798;37.782;2023-04-25T08:14:18;10.25;;;5.60;;
33421;SDS011;19763;55.798;37.782;2023-04-25T08:16:44;10.95;;;5.95;;
33421;SDS011;19763;55.798;37.782;2023-04-25T08:19:10;9.98;;;6.13;;
33421;SDS011;19763;55.798;37.782;2023-04-25T08:21:36;10.25;;;5.72;;
33421;SDS011;19763;55.798;37.782;2023-04-25T08:24:01;11.57;;;5.03;;
33421;SDS011;19763;55.798;37.782;2023-04-25T08:26:28;9.38;;;5.22;;
33421;SDS011;19763;55.798;37.782;2023-04-25T08:28:53;11.10;;;5.07;;
33421;SDS011;19763;55.798;37.782;2023-04-25T08:31:19;10.65;;;5.20;;
33421;SDS011;19763;55.798;37.782;2023-04-25T08:33:45;11.32;;;5.18;;
33421;SDS011;19763;55.798;37.782;2023-04-25T08:36:11;8.43;;;5.13;;
33421;SDS011;19763;55.798;37.782;2023-04-25T08:38:37;8.45;;;4.88;;
33421;SDS011;19763;55.798;37.782;2023-04-25T08:41:02;8.13;;;4.60;;
33421;SDS011;19763;55.798;37.782;2023-04-25T08:43:30;13.13;;;5.82;;
33421;SDS011;19763;55.798;37.782;2023-04-25T08:45:59;13.27;;;5.05;;
33421;SDS011;19763;55.798;37.782;2023-04-25T08:48:26;9.30;;;4.30;;
33421;SDS011;19763;55.798;37.782;2023-04-25T08:50:54;9.88;;;5.43;;
33421;SDS011;19763;55.798;37.782;2023-04-25T08:53:31;9.23;;;5.05;;
33421;SDS011;19763;55.798;37.782;2023-04-25T08:55:58;10.27;;;5.38;;
33421;SDS011;19763;55.798;37.782;2023-04-25T08:58:26;14.00;;;5.05;;
33421;SDS011;19763;55.798;37.782;2023-04-25T09:00:53;8.68;;;4.80;;
33421;SDS011;19763;55.798;37.782;2023-04-25T09:03:18;10.25;;;5.35;;
33421;SDS011;19763;55.798;37.782;2023-04-25T09:05:44;11.40;;;4.97;;
33421;SDS011;19763;55.798;37.782;2023-04-25T09:08:10;9.48;;;5.68;;
33421;SDS011;19763;55.798;37.782;2023-04-25T09:10:36;11.00;;;4.60;;
33421;SDS011;19763;55.798;37.782;2023-04-25T09:13:06;6.85;;;5.13;;
33421;SDS011;19763;55.798;37.782;2023-04-25T09:15:46;12.17;;;5.03;;
33421;SDS011;19763;55.798;37.782;2023-04-25T09:18:12;14.07;;;6.18;;
33421;SDS011;19763;55.798;37.782;2023-04-25T09:20:43;9.30;;;6.10;;
33421;SDS011;19763;55.798;37.782;2023-04-25T09:25:35;9.48;;;6.10;;
33421;SDS011;19763;55.798;37.782;2023-04-25T09:28:04;12.70;;;6.82;;
33421;SDS011;19763;55.798;37.782;2023-04-25T09:30:32;11.88;;;6.57;;
33421;SDS011;19763;55.798;37.782;2023-04-25T09:33:04;11.90;;;7.10;;
33421;SDS011;19763;55.798;37.782;2023-04-25T09:35:40;10.98;;;6.80;;
33421;SDS011;19763;55.798;37.782;2023-04-25T09:38:11;15.10;;;8.15;;
33421;SDS011;19763;55.798;37.782;2023-04-25T09:40:45;11.88;;;5.47;;
33421;SDS011;19763;55.798;37.782;2023-04-25T09:43:20;5.03;;;3.97;;
33421;SDS011;19763;55.798;37.782;2023-04-25T09:45:47;7.70;;;4.35;;
33421;SDS011;19763;55.798;37.782;2023-04-25T09:48:22;9.50;;;4.95;;
33421;SDS011;19763;55.798;37.782;2023-04-25T09:53:40;12.18;;;3.63;;
33421;SDS011;19763;55.798;37.782;2023-04-25T09:56:08;6.68;;;3.75;;
33421;SDS011;19763;55.798;37.782;2023-04-25T09:58:36;8.95;;;3.53;;
33421;SDS011;19763;55.798;37.782;2023-04-25T10:01:04;7.10;;;3.75;;
33421;SDS011;19763;55.798;37.782;2023-04-25T10:03:32;6.90;;;3.60;;
33421;SDS011;19763;55.798;37.782;2023-04-25T10:06:02;4.13;;;3.05;;
33421;SDS011;19763;55.798;37.782;2023-04-25T10:08:33;6.78;;;3.78;;
33421;SDS011;19763;55.798;37.782;2023-04-25T10:11:06;6.00;;;3.20;;
33421;SDS011;19763;55.798;37.782;2023-04-25T10:13:33;5.25;;;3.55;;
33421;SDS011;19763;55.798;37.782;2023-04-25T10:16:02;6.40;;;4.07;;
33421;SDS011;19763;55.798;37.782;2023-04-25T10:18:30;6.45;;;3.67;;
33421;SDS011;19763;55.798;37.782;2023-04-25T10:20:57;6.22;;;4.00;;
33421;SDS011;19763;55.798;37.782;2023-04-25T10:23:25;9.13;;;3.95;;
33421;SDS011;19763;55.798;37.782;2023-04-25T10:25:51;5.70;;;3.28;;
33421;SDS011;19763;55.798;37.782;2023-04-25T10:28:18;4.68;;;3.40;;
33421;SDS011;19763;55.798;37.782;2023-04-25T10:31:07;7.72;;;3.67;;
33421;SDS011;19763;55.798;37.782;2023-04-25T10:33:33;8.80;;;4.13;;
33421;SDS011;19763;55.798;37.782;2023-04-25T10:36:13;9.00;;;4.00;;
33421;SDS011;19763;55.798;37.782;2023-04-25T10:38:42;7.45;;;3.45;;
33421;SDS011;19763;55.798;37.782;2023-04-25T10:41:09;6.55;;;3.17;;
33421;SDS011;19763;55.798;37.782;2023-04-25T10:43:40;7.90;;;3.83;;
33421;SDS011;19763;55.798;37.782;2023-04-25T10:51:17;5.93;;;3.42;;
33421;SDS011;19763;55.798;37.782;2023-04-25T10:53:45;7.40;;;3.35;;
33421;SDS011;19763;55.798;37.782;2023-04-25T10:58:42;10.65;;;3.55;;
33421;SDS011;19763;55.798;37.782;2023-04-25T11:01:09;7.93;;;3.53;;
33421;SDS011;19763;55.798;37.782;2023-04-25T11:03:42;6.93;;;3.90;;
33421;SDS011;19763;55.798;37.782;2023-04-25T11:06:12;5.10;;;3.53;;
33421;SDS011;19763;55.798;37.782;2023-04-25T11:09:02;9.45;;;4.00;;
33421;SDS011;19763;55.798;37.782;2023-04-25T11:11:36;5.80;;;3.60;;
33421;SDS011;19763;55.798;37.782;2023-04-25T11:14:02;5.72;;;4.03;;
33421;SDS011;19763;55.798;37.782;2023-04-25T11:16:27;7.03;;;4.03;;
33421;SDS011;19763;55.798;37.782;2023-04-25T11:18:53;4.72;;;3.33;;
33421;SDS011;19763;55.798;37.782;2023-04-25T11:21:22;6.07;;;2.85;;
33421;SDS011;19763;55.798;37.782;2023-04-25T11:23:48;7.65;;;3.03;;
33421;SDS011;19763;55.798;37.782;2023-04-25T11:26:13;5.28;;;3.63;;
33421;SDS011;19763;55.798;37.782;2023-04-25T11:28:40;4.20;;;2.80;;
33421;SDS011;19763;55.798;37.782;2023-04-25T11:31:05;6.97;;;3.38;;
33421;SDS011;19763;55.798;37.782;2023-04-25T11:33:31;6.85;;;3.53;;
33421;SDS011;19763;55.798;37.782;2023-04-25T11:35:57;6.40;;;3.40;;
33421;SDS011;19763;55.798;37.782;2023-04-25T11:38:23;5.43;;;2.90;;
33421;SDS011;19763;55.798;37.782;2023-04-25T11:40:51;7.25;;;3.40;;
33421;SDS011;19763;55.798;37.782;2023-04-25T11:43:18;5.03;;;3.15;;
33421;SDS011;19763;55.798;37.782;2023-04-25T11:45:46;10.60;;;4.18;;
33421;SDS011;19763;55.798;37.782;2023-04-25T11:48:16;8.35;;;3.67;;
33421;SDS011;19763;55.798;37.782;2023-04-25T11:50:42;7.30;;;3.63;;
33421;SDS011;19763;55.798;37.782;2023-04-25T11:53:08;6.95;;;3.45;;
33421;SDS011;19763;55.798;37.782;2023-04-25T11:55:34;6.40;;;3.58;;
33421;SDS011;19763;55.798;37.782;2023-04-25T11:58:01;6.47;;;3.20;;
33421;SDS011;19763;55.798;37.782;2023-04-25T12:00:27;5.88;;;3.35;;
33421;SDS011;19763;55.798;37.782;2023-04-25T12:02:53;4.85;;;3.17;;
33421;SDS011;19763;55.798;37.782;2023-04-25T12:05:23;3.75;;;3.05;;
33421;SDS011;19763;55.798;37.782;2023-04-25T12:07:51;5.57;;;3.33;;
33421;SDS011;19763;55.798;37.782;2023-04-25T12:10:17;5.38;;;3.25;;
33421;SDS011;19763;55.798;37.782;2023-04-25T12:12:45;5.65;;;3.45;;
33421;SDS011;19763;55.798;37.782;2023-04-25T12:17:46;8.60;;;3.63;;
33421;SDS011;19763;55.798;37.782;2023-04-25T12:20:13;9.82;;;4.03;;
33421;SDS011;19763;55.798;37.782;2023-04-25T12:22:43;6.10;;;3.25;;
33421;SDS011;19763;55.798;37.782;2023-04-25T12:25:13;6.45;;;3.70;;
33421;SDS011;19763;55.798;37.782;2023-04-25T12:28:16;7.47;;;3.00;;
33421;SDS011;19763;55.798;37.782;2023-04-25T12:33:33;5.45;;;3.40;;
33421;SDS011;19763;55.798;37.782;2023-04-25T12:36:00;6.87;;;3.47;;
33421;SDS011;19763;55.798;37.782;2023-04-25T12:38:35;6.82;;;3.50;;
33421;SDS011;19763;55.798;37.782;2023-04-25T12:41:02;7.05;;;3.33;;
33421;SDS011;19763;55.798;37.782;2023-04-25T12:43:27;6.05;;;3.50;;
33421;SDS011;19763;55.798;37.782;2023-04-25T12:45:54;9.00;;;3.85;;
33421;SDS011;19763;55.798;37.782;2023-04-25T12:48:20;4.88;;;3.20;;
33421;SDS011;19763;55.798;37.782;2023-04-25T12:50:47;5.25;;;3.28;;
33421;SDS011;19763;55.798;37.782;2023-04-25T12:53:23;6.65;;;3.58;;
33421;SDS011;19763;55.798;37.782;2023-04-25T12:55:49;7.15;;;3.70;;
33421;SDS011;19763;55.798;37.782;2023-04-25T12:58:18;6.55;;;4.18;;
33421;SDS011;19763;55.798;37.782;2023-04-25T13:00:44;5.70;;;3.88;;
33421;SDS011;19763;55.798;37.782;2023-04-25T13:03:10;10.00;;;3.70;;
33421;SDS011;19763;55.798;37.782;2023-04-25T13:05:37;8.20;;;4.65;;
33421;SDS011;19763;55.798;37.782;2023-04-25T13:08:04;6.38;;;3.72;;
33421;SDS011;19763;55.798;37.782;2023-04-25T13:10:30;6.88;;;4.60;;
33421;SDS011;19763;55.798;37.782;2023-04-25T13:12:56;8.45;;;4.47;;
33421;SDS011;19763;55.798;37.782;2023-04-25T13:15:22;7.57;;;4.35;;
33421;SDS011;19763;55.798;37.782;2023-04-25T13:17:48;9.30;;;4.65;;
33421;SDS011;19763;55.798;37.782;2023-04-25T13:20:13;7.18;;;4.60;;
33421;SDS011;19763;55.798;37.782;2023-04-25T13:22:40;5.90;;;4.47;;
33421;SDS011;19763;55.798;37.782;2023-04-25T13:25:07;8.57;;;4.80;;
33421;SDS011;19763;55.798;37.782;2023-04-25T13:27:34;7.63;;;5.18;;
33421;SDS011;19763;55.798;37.782;2023-04-25T13:30:01;8.23;;;4.65;;
33421;SDS011;19763;55.798;37.782;2023-04-25T13:32:32;8.77;;;4.40;;
33421;SDS011;19763;55.798;37.782;2023-04-25T13:35:02;6.93;;;4.45;;
33421;SDS011;19763;55.798;37.782;2023-04-25T13:37:34;6.20;;;4.03;;
33421;SDS011;19763;55.798;37.782;2023-04-25T13:40:00;7.47;;;4.22;;
33421;SDS011;19763;55.798;37.782;2023-04-25T13:42:29;5.70;;;4.00;;
33421;SDS011;19763;55.798;37.782;2023-04-25T13:44:55;6.28;;;4.15;;
33421;SDS011;19763;55.798;37.782;2023-04-25T13:47:20;5.60;;;3.90;;
33421;SDS011;19763;55.798;37.782;2023-04-25T13:49:48;6.78;;;4.40;;
33421;SDS011;19763;55.798;37.782;2023-04-25T13:52:14;8.35;;;4.53;;
33421;SDS011;19763;55.798;37.782;2023-04-25T13:54:40;7.55;;;4.70;;
33421;SDS011;19763;55.798;37.782;2023-04-25T13:57:05;8.88;;;4.72;;
33421;SDS011;19763;55.798;37.782;2023-04-25T13:59:31;5.75;;;4.00;;
33421;SDS011;19763;55.798;37.782;2023-04-25T14:01:57;7.45;;;4.63;;
33421;SDS011;19763;55.798;37.782;2023-04-25T14:04:23;5.18;;;4.63;;
33421;SDS011;19763;55.798;37.782;2023-04-25T14:06:49;6.65;;;4.80;;
33421;SDS011;19763;55.798;37.782;2023-04-25T14:09:15;5.57;;;4.35;;
33421;SDS011;19763;55.798;37.782;2023-04-25T14:11:41;8.75;;;4.80;;
33421;SDS011;19763;55.798;37.782;2023-04-25T14:14:06;7.55;;;5.45;;
33421;SDS011;19763;55.798;37.782;2023-04-25T14:16:33;6.32;;;4.35;;
33421;SDS011;19763;55.798;37.782;2023-04-25T14:18:58;8.98;;;4.90;;
33421;SDS011;19763;55.798;37.782;2023-04-25T14:21:25;7.57;;;5.30;;
33421;SDS011;19763;55.798;37.782;2023-04-25T14:23:52;6.05;;;5.00;;
33421;SDS011;19763;55.798;37.782;2023-04-25T14:26:17;6.85;;;4.70;;
33421;SDS011;19763;55.798;37.782;2023-04-25T14:28:43;6.60;;;3.25;;
33421;SDS011;19763;55.798;37.782;2023-04-25T14:31:09;6.45;;;4.22;;
33421;SDS011;19763;55.798;37.782;2023-04-25T14:33:35;6.05;;;4.55;;
33421;SDS011;19763;55.798;37.782;2023-04-25T14:36:02;6.97;;;4.15;;
33421;SDS011;19763;55.798;37.782;2023-04-25T14:38:28;6.72;;;3.90;;
33421;SDS011;19763;55.798;37.782;2023-04-25T14:40:54;5.93;;;4.03;;
33421;SDS011;19763;55.798;37.782;2023-04-25T14:43:19;6.85;;;3.90;;